TJMZ

Details ICAO TJMZ (MAZ)
Name Mayaguez/Eugenio Maria De Hostos
Region USA (Puerto Rico)
Timezone America/Puerto_Rico (UTC-4.0)
Plans Departing 19
Arriving 17
Stats Elevation 28 ft / 9 m (AMSL)
Location 18.255644° -67.148451°
Runways 1
Magnetic Variation 12.737° W
Sunrise 2018-05-25 09:54:09 UTC / 2018-05-25 05:54:09 Local
Sunset 2018-05-25 22:59:50 UTC / 2018-05-25 18:59:50 Local
Advertisement - Login to hide

Runways

ID Width Length Bearing (true) Bearing (mag) Surface Threshold Offset Overrun Length
09 98 ft / 30 m 4,995 ft / 1,522 m 76.40° 89.14° Asphalt 0 ft / 0 m 0 ft / 0 m
27 98 ft / 30 m 4,995 ft / 1,522 m 256.41° 269.15° Asphalt 0 ft / 0 m 0 ft / 0 m

Map

Weather


0- 5 10 15 20 25 30 35+ Temperature / ° C

Clouds and Precipitation
Forecast for 2018-05-25 12:00 UTC. Updated 4 hours ago

Ground ~20,000 ft ~40,000 ft Winds

METAR

Not found

TAF

TAF TJMZ 251122Z 2512/2612 06003KT P6SM SKC FM251400 08007KT P6SM SCT040 FM251700 28011KT P6SM VCTS SCT025CB BKN040 FM252300 08006KT P6SM FEW030 SCT060 SCT100 AMD NOT SKED

Frequencies

Unicom 122.80 MHz CTAF/UNICOM
Approach 118.75 MHz SAN JUAN CNTR
Clearance 121.70 MHz CLNC DEL
Warning: Do not use this data for real-world aviation or navigation. No guarantee of current accuracy is given.